Time;durP1;ratioP1;P1;durP2;ratioP2;P2;SDS_P1;SDS_P2;PMS_P1;PMS_P2;Temp;Humidity;BMP_temperature;BMP_pressure;BME280_temperature;BME280_humidity;BME280_pressure;Samples;Min_cycle;Max_cycle;Signal;HPM_P1;HPM_P2
2023/01/14 00:01:17;;;;;;;29.75;4.50;;;;;;;6.75;100.00;100506.16;5118773;27;20042;-75
2023/01/14 00:03:43;;;;;;;24.90;3.47;;;;;;;6.73;100.00;100486.63;5131815;27;20042;-75
2023/01/14 00:06:15;;;;;;;25.13;3.38;;;;;;;6.73;100.00;100502.78;5103330;27;20023;-76
2023/01/14 00:08:40;;;;;;;23.23;3.75;;;;;;;6.80;100.00;100477.00;5123803;27;20027;-76
2023/01/14 00:11:07;;;;;;;25.98;4.35;;;;;;;6.72;100.00;100511.84;5130466;27;20032;-76
2023/01/14 00:13:37;;;;;;;18.85;4.22;;;;;;;6.81;100.00;100520.88;5109896;27;20030;-76
2023/01/14 00:16:04;;;;;;;37.78;4.45;;;;;;;6.84;100.00;100519.75;5123781;27;20019;-76
2023/01/14 00:18:32;;;;;;;28.02;5.32;;;;;;;6.86;100.00;100509.72;5126910;27;20018;-76
2023/01/14 00:21:03;;;;;;;27.83;3.80;;;;;;;6.94;100.00;100525.97;5107631;27;20022;-76
2023/01/14 00:23:30;;;;;;;34.63;5.03;;;;;;;6.78;100.00;100503.19;5109816;27;20019;-76
2023/01/14 00:26:06;;;;;;;21.50;3.38;;;;;;;6.84;100.00;100509.81;5116437;27;20031;-75
2023/01/14 00:28:31;;;;;;;24.05;3.63;;;;;;;6.90;100.00;100525.41;5111620;27;20019;-74
2023/01/14 00:31:03;;;;;;;23.42;3.65;;;;;;;6.87;100.00;100525.69;5123310;27;20025;-74
2023/01/14 00:33:28;;;;;;;32.33;4.22;;;;;;;6.82;100.00;100537.88;5118874;27;20099;-74
2023/01/14 00:35:55;;;;;;;37.85;3.78;;;;;;;6.74;100.00;100531.38;5127878;27;20039;-74
2023/01/14 00:38:21;;;;;;;29.02;3.58;;;;;;;6.83;100.00;100534.19;5112336;28;20109;-74
2023/01/14 00:40:46;;;;;;;30.05;4.18;;;;;;;6.74;100.00;100542.13;5114094;27;20169;-74
2023/01/14 00:43:12;;;;;;;25.08;5.18;;;;;;;6.66;100.00;100541.16;5117591;27;20030;-74
2023/01/14 00:45:37;;;;;;;28.45;5.05;;;;;;;6.60;100.00;100539.03;5113502;27;20057;-74
2023/01/14 00:48:02;;;;;;;20.05;3.25;;;;;;;6.56;100.00;100540.28;5129794;27;20045;-74
2023/01/14 00:50:28;;;;;;;19.63;3.05;;;;;;;6.58;100.00;100541.81;5113838;27;20034;-74
2023/01/14 00:52:53;;;;;;;17.63;2.95;;;;;;;6.65;100.00;100551.06;5112203;27;20026;-74
2023/01/14 00:55:18;;;;;;;24.85;3.33;;;;;;;6.56;100.00;100554.56;5117170;27;20068;-75
2023/01/14 00:57:44;;;;;;;20.80;3.97;;;;;;;6.70;100.00;100556.84;5108024;28;20023;-75
2023/01/14 01:00:10;;;;;;;18.67;2.97;;;;;;;6.61;100.00;100573.84;5137212;27;20053;-75
2023/01/14 01:02:35;;;;;;;20.08;3.58;;;;;;;6.60;100.00;100557.84;5121890;27;20030;-75
2023/01/14 01:05:01;;;;;;;20.23;3.65;;;;;;;6.56;100.00;100554.56;5111038;27;20024;-76
2023/01/14 01:07:26;;;;;;;20.60;3.30;;;;;;;6.64;100.00;100553.88;5107996;28;20055;-75
2023/01/14 01:09:51;;;;;;;20.33;3.47;;;;;;;6.59;100.00;100557.00;5104585;28;20071;-75
2023/01/14 01:12:17;;;;;;;24.83;3.42;;;;;;;6.60;100.00;100572.16;5112886;27;20023;-75
2023/01/14 01:14:42;;;;;;;16.80;2.92;;;;;;;6.49;100.00;100558.81;5129373;27;20106;-75
2023/01/14 01:17:07;;;;;;;17.15;3.30;;;;;;;6.48;100.00;100567.88;5111440;28;20071;-76
2023/01/14 01:19:33;;;;;;;23.90;3.75;;;;;;;6.66;100.00;100582.34;5117081;27;20014;-76
2023/01/14 01:21:59;;;;;;;17.40;2.78;;;;;;;6.57;100.00;100588.56;5109455;27;20031;-75
2023/01/14 01:24:25;;;;;;;17.80;2.95;;;;;;;6.53;100.00;100584.47;5100236;27;20080;-76
2023/01/14 01:26:51;;;;;;;17.30;3.50;;;;;;;6.51;100.00;100583.72;5117503;27;20023;-75
2023/01/14 01:29:16;;;;;;;27.27;3.17;;;;;;;6.59;100.00;100583.91;5115241;28;20023;-75
2023/01/14 01:31:42;;;;;;;19.20;2.40;;;;;;;6.65;100.00;100607.56;5118309;27;20463;-75
2023/01/14 01:34:07;;;;;;;22.00;3.67;;;;;;;6.58;100.00;100584.88;5115105;27;20023;-75
2023/01/14 01:36:32;;;;;;;27.30;3.33;;;;;;;6.47;100.00;100590.38;5118845;27;20022;-75
2023/01/14 01:38:58;;;;;;;14.88;2.00;;;;;;;6.53;100.00;100616.72;5116670;27;20034;-75
2023/01/14 01:41:29;;;;;;;27.10;3.78;;;;;;;6.43;100.00;100613.16;5123476;27;20023;-76
2023/01/14 01:44:15;;;;;;;28.73;3.63;;;;;;;6.55;100.00;100595.91;5116648;27;20122;-76
2023/01/14 01:46:41;;;;;;;18.73;3.28;;;;;;;6.53;100.00;100603.28;5076446;27;20047;-76
2023/01/14 01:49:17;;;;;;;16.67;3.45;;;;;;;6.55;100.00;100633.56;5113670;27;20022;-75
2023/01/14 01:52:24;;;;;;;17.60;2.72;;;;;;;6.63;100.00;100630.19;5121828;27;20106;-76
2023/01/14 01:54:55;;;;;;;27.70;3.85;;;;;;;6.69;100.00;100641.25;5120070;27;20080;-76
2023/01/14 01:57:21;;;;;;;33.53;3.53;;;;;;;6.63;100.00;100644.47;5117965;27;20023;-76
2023/01/14 01:59:52;;;;;;;31.80;3.25;;;;;;;6.62;100.00;100640.09;5114723;27;20025;-76
2023/01/14 02:02:20;;;;;;;27.98;3.65;;;;;;;6.74;100.00;100655.13;5140811;27;20109;-76
2023/01/14 02:04:45;;;;;;;28.52;3.72;;;;;;;6.69;100.00;100643.94;5110319;27;20027;-75
2023/01/14 02:07:20;;;;;;;25.60;3.75;;;;;;;6.75;100.00;100664.91;5132267;27;20084;-76
2023/01/14 02:09:59;;;;;;;27.40;4.72;;;;;;;6.79;100.00;100652.88;5110525;27;20027;-76
2023/01/14 02:12:51;;;;;;;21.92;4.65;;;;;;;6.76;100.00;100663.91;5079610;27;20042;-76
2023/01/14 02:15:26;;;;;;;32.83;3.83;;;;;;;6.80;100.00;100649.19;5111112;27;20036;-76
2023/01/14 02:18:01;;;;;;;20.63;3.00;;;;;;;6.70;100.00;100669.84;5124425;27;20026;-76
2023/01/14 02:20:35;;;;;;;23.35;4.10;;;;;;;6.70;100.00;100652.84;5111937;27;20020;-75
2023/01/14 02:23:11;;;;;;;24.88;3.55;;;;;;;6.75;100.00;100666.75;5106684;27;20094;-75
2023/01/14 02:26:04;;;;;;;24.40;3.03;;;;;;;6.82;100.00;100656.28;5129571;27;20030;-75
2023/01/14 02:28:50;;;;;;;19.02;2.28;;;;;;;6.80;100.00;100661.81;5103542;27;20011;-76
2023/01/14 02:31:28;;;;;;;24.52;3.33;;;;;;;6.77;100.00;100676.38;5104726;27;20019;-76
2023/01/14 02:34:04;;;;;;;14.63;2.88;;;;;;;6.70;100.00;100691.38;5116151;27;20030;-76
2023/01/14 02:36:59;;;;;;;23.52;2.72;;;;;;;6.66;100.00;100679.19;5113669;27;20051;-75
2023/01/14 02:39:28;;;;;;;16.17;2.55;;;;;;;6.71;100.00;100687.69;5108748;27;20080;-75
2023/01/14 02:45:15;;;;;;;18.45;2.95;;;;;;;6.61;100.00;100685.97;5139872;27;20022;-75
2023/01/14 02:47:43;;;;;;;29.73;3.45;;;;;;;6.48;100.00;100696.97;5114346;27;20071;-75
2023/01/14 02:50:11;;;;;;;10.70;3.08;;;;;;;6.48;100.00;100670.06;5104484;28;20117;-76
2023/01/14 02:52:36;;;;;;;26.48;2.70;;;;;;;6.53;100.00;100700.13;5115276;27;20056;-75
2023/01/14 02:55:02;;;;;;;16.15;2.78;;;;;;;6.60;100.00;100674.38;5139796;27;20026;-75
2023/01/14 02:57:59;;;;;;;15.95;2.63;;;;;;;6.55;100.00;100687.38;5132067;27;20302;-75
2023/01/14 03:00:41;;;;;;;18.65;3.17;;;;;;;6.62;100.00;100677.75;5107832;27;20018;-76
2023/01/14 03:03:40;;;;;;;17.58;2.47;;;;;;;6.62;100.00;100683.13;5134482;27;20022;-75
2023/01/14 03:06:24;;;;;;;16.98;2.95;;;;;;;6.57;100.00;100698.84;5074693;27;20055;-75
2023/01/14 03:09:18;;;;;;;19.00;2.60;;;;;;;6.76;100.00;100680.06;5117722;27;20084;-75
2023/01/14 03:11:56;;;;;;;23.77;2.83;;;;;;;6.68;100.00;100690.66;5114607;27;20050;-75
2023/01/14 03:14:29;;;;;;;14.18;3.78;;;;;;;6.67;100.00;100697.03;5112974;27;20043;-75
2023/01/14 03:17:01;;;;;;;16.83;2.53;;;;;;;6.61;100.00;100681.44;5118014;27;20030;-75
2023/01/14 03:19:38;;;;;;;17.40;3.25;;;;;;;6.58;100.00;100697.84;5118031;27;20022;-76
2023/01/14 03:22:05;;;;;;;27.38;3.28;;;;;;;6.55;100.00;100698.13;5112436;27;20016;-75
2023/01/14 03:24:35;;;;;;;14.43;2.30;;;;;;;6.62;100.00;100688.53;5111976;27;20035;-75
2023/01/14 03:27:06;;;;;;;14.82;3.15;;;;;;;6.61;100.00;100692.19;5115075;27;20026;-75
2023/01/14 03:29:37;;;;;;;12.00;2.60;;;;;;;6.65;100.00;100682.00;5112442;27;20031;-75
2023/01/14 03:32:11;;;;;;;20.23;3.55;;;;;;;6.64;100.00;100702.66;5125959;27;20022;-75
2023/01/14 03:34:43;;;;;;;13.07;2.40;;;;;;;6.66;100.00;100695.34;5123403;27;20547;-75
2023/01/14 03:37:11;;;;;;;18.65;2.63;;;;;;;6.69;100.00;100684.28;5107974;27;20064;-75
2023/01/14 03:39:39;;;;;;;14.73;2.80;;;;;;;6.63;100.00;100690.22;5111781;27;20034;-75
2023/01/14 03:42:18;;;;;;;13.48;2.95;;;;;;;6.72;100.00;100684.03;5126961;27;20026;-76
2023/01/14 03:44:52;;;;;;;15.45;2.97;;;;;;;6.69;100.00;100689.66;5104178;27;20027;-75
2023/01/14 03:47:21;;;;;;;20.40;3.63;;;;;;;6.64;100.00;100708.06;5106959;27;20028;-75
2023/01/14 03:49:48;;;;;;;22.98;2.72;;;;;;;6.73;100.00;100701.88;5116744;27;20046;-75
2023/01/14 03:52:24;;;;;;;15.90;2.10;;;;;;;6.68;100.00;100714.03;5116724;27;20086;-75
2023/01/14 03:55:04;;;;;;;18.77;3.33;;;;;;;6.72;100.00;100710.94;5114350;27;20022;-75
2023/01/14 03:57:37;;;;;;;9.32;2.10;;;;;;;6.68;100.00;100714.88;5106194;27;20011;-75
2023/01/14 04:00:19;;;;;;;20.33;2.72;;;;;;;6.86;100.00;100722.28;5125100;27;20059;-74
2023/01/14 04:02:46;;;;;;;12.40;2.35;;;;;;;6.91;100.00;100709.25;5121109;27;20033;-74
2023/01/14 04:05:12;;;;;;;15.90;3.03;;;;;;;6.93;100.00;100707.28;5121547;27;20038;-74
2023/01/14 04:07:37;;;;;;;16.33;2.40;;;;;;;6.76;100.00;100706.97;5116717;27;20027;-74
2023/01/14 04:10:03;;;;;;;10.32;1.98;;;;;;;6.80;100.00;100703.00;5106799;27;20030;-75
2023/01/14 04:12:28;;;;;;;14.20;2.85;;;;;;;6.80;100.00;100708.41;5107383;27;20522;-74
2023/01/14 04:17:51;;;;;;;5.53;1.33;;;;;;;6.79;100.00;100701.31;5081607;27;20039;-74
2023/01/14 04:20:17;;;;;;;10.73;2.30;;;;;;;6.76;100.00;100712.34;5112018;27;20538;-75
2023/01/14 04:22:42;;;;;;;23.83;2.60;;;;;;;6.84;100.00;100716.19;5132369;27;20015;-74
2023/01/14 04:25:08;;;;;;;18.40;1.77;;;;;;;6.95;100.00;100721.47;5110277;27;20497;-74
2023/01/14 04:27:33;;;;;;;11.25;2.08;;;;;;;6.82;100.00;100715.47;5105971;27;20023;-75
2023/01/14 04:29:58;;;;;;;15.07;2.28;;;;;;;6.64;100.00;100740.34;5119017;27;20106;-75
2023/01/14 04:32:24;;;;;;;7.53;1.85;;;;;;;6.66;100.00;100732.16;5121837;27;20112;-74
2023/01/14 04:34:49;;;;;;;13.68;2.13;;;;;;;6.68;100.00;100720.25;5106615;27;20028;-75
2023/01/14 04:37:16;;;;;;;16.50;2.65;;;;;;;6.57;100.00;100749.94;5123522;27;20022;-75
2023/01/14 04:39:42;;;;;;;16.38;1.95;;;;;;;6.47;100.00;100746.38;5123258;27;20015;-75
2023/01/14 04:42:26;;;;;;;12.30;3.05;;;;;;;6.37;100.00;100727.50;5111172;27;20493;-75
2023/01/14 04:44:56;;;;;;;10.48;2.17;;;;;;;6.40;100.00;100742.53;5113697;27;20061;-75
2023/01/14 04:47:22;;;;;;;18.85;2.78;;;;;;;6.28;100.00;100732.84;5120610;27;20129;-75
2023/01/14 04:49:47;;;;;;;15.30;2.35;;;;;;;6.35;100.00;100728.63;5139673;27;20015;-73
2023/01/14 04:52:13;;;;;;;24.92;3.20;;;;;;;6.35;100.00;100752.81;5103732;28;20018;-73
2023/01/14 04:54:38;;;;;;;17.17;2.00;;;;;;;6.34;100.00;100738.53;5103108;27;20027;-73
2023/01/14 04:57:03;;;;;;;17.65;3.72;;;;;;;6.37;100.00;100737.41;5116144;27;20486;-72
2023/01/14 04:59:29;;;;;;;17.20;3.13;;;;;;;6.43;100.00;100739.56;5115094;27;20022;-71
2023/01/14 05:01:54;;;;;;;19.52;2.85;;;;;;;6.33;100.00;100741.38;5112626;27;20027;-71
2023/01/14 05:04:20;;;;;;;17.40;3.90;;;;;;;6.35;100.00;100734.00;5132025;27;20072;-72
2023/01/14 05:06:46;;;;;;;26.15;4.40;;;;;;;6.28;100.00;100732.84;5113558;27;20033;-71
2023/01/14 05:09:11;;;;;;;16.00;3.00;;;;;;;6.27;100.00;100741.91;5112943;27;20112;-74
2023/01/14 05:11:36;;;;;;;24.75;3.95;;;;;;;6.38;100.00;100733.72;5110415;28;20027;-74
2023/01/14 05:14:02;;;;;;;17.35;4.20;;;;;;;6.36;100.00;100735.69;5110785;27;20027;-74
2023/01/14 05:16:27;;;;;;;23.17;4.25;;;;;;;6.48;100.00;100737.31;5111371;27;20031;-73
2023/01/14 05:18:53;;;;;;;19.58;5.25;;;;;;;6.73;100.00;100734.16;5108607;27;20500;-73
2023/01/14 05:21:19;;;;;;;26.15;6.85;;;;;;;6.42;100.00;100735.16;5128610;27;20450;-73
2023/01/14 05:23:45;;;;;;;28.42;7.82;;;;;;;6.32;100.00;100734.25;5133273;27;20023;-73
2023/01/14 05:26:12;;;;;;;35.85;8.73;;;;;;;6.29;100.00;100731.84;5112846;27;20035;-74
2023/01/14 05:28:38;;;;;;;32.45;9.30;;;;;;;6.32;100.00;100718.13;5119572;27;20476;-74
2023/01/14 05:31:07;;;;;;;37.65;9.32;;;;;;;6.38;100.00;100717.59;5125815;27;20095;-73
2023/01/14 05:33:32;;;;;;;30.38;10.27;;;;;;;6.29;100.00;100713.88;5110205;27;20095;-73
2023/01/14 05:35:59;;;;;;;44.35;10.93;;;;;;;6.31;100.00;100721.81;5116981;27;20729;-73
2023/01/14 05:38:25;;;;;;;27.52;11.57;;;;;;;6.46;100.00;100725.84;5132157;27;20023;-73
2023/01/14 05:40:51;;;;;;;24.92;10.00;;;;;;;6.54;100.00;100734.09;5130091;27;20031;-73
2023/01/14 05:46:05;;;;;;;42.47;10.73;;;;;;;6.69;100.00;100735.41;5135618;27;20022;-75
2023/01/14 05:48:30;;;;;;;34.10;9.88;;;;;;;6.62;100.00;100731.56;5140432;27;20052;-72
2023/01/14 05:50:58;;;;;;;44.40;11.82;;;;;;;6.64;100.00;100729.56;5136417;27;20057;-73
2023/01/14 05:53:25;;;;;;;32.22;9.90;;;;;;;6.66;100.00;100718.69;5127509;27;20023;-73
2023/01/14 05:55:51;;;;;;;37.65;9.98;;;;;;;6.68;100.00;100714.88;5107364;27;20028;-72
2023/01/14 05:58:17;;;;;;;36.50;9.93;;;;;;;6.72;100.00;100710.94;5125077;27;20050;-74
2023/01/14 06:06:20;;;;;;;44.10;9.73;;;;;;;6.60;100.00;100701.25;5143591;27;20022;-73
2023/01/14 06:08:46;;;;;;;32.97;9.27;;;;;;;6.53;100.00;100716.25;5109771;27;20512;-74
2023/01/14 06:11:23;;;;;;;40.38;9.82;;;;;;;6.61;100.00;100712.88;5108482;27;20031;-74
2023/01/14 06:13:50;;;;;;;40.08;9.70;;;;;;;6.61;100.00;100707.50;5119235;27;20033;-74
2023/01/14 06:16:17;;;;;;;43.47;9.82;;;;;;;6.68;100.00;100704.13;5118781;27;20042;-74
2023/01/14 06:18:43;;;;;;;35.95;9.25;;;;;;;6.71;100.00;100698.44;5129819;27;20045;-74
2023/01/14 06:21:11;;;;;;;41.22;10.48;;;;;;;6.79;100.00;100698.63;5115230;27;20109;-75
2023/01/14 06:23:37;;;;;;;54.80;9.75;;;;;;;6.63;100.00;100700.13;5115381;27;20022;-75
2023/01/14 06:26:02;;;;;;;39.47;7.90;;;;;;;6.69;100.00;100703.13;5123309;27;20019;-75
2023/01/14 06:28:28;;;;;;;41.95;8.77;;;;;;;6.72;100.00;100694.78;5113232;27;20098;-76
2023/01/14 06:30:54;;;;;;;37.72;8.27;;;;;;;6.73;100.00;100701.88;5113605;27;20129;-75
2023/01/14 06:33:20;;;;;;;46.25;9.30;;;;;;;6.76;100.00;100706.97;5114206;27;20019;-75
2023/01/14 06:35:45;;;;;;;45.80;9.90;;;;;;;6.66;100.00;100708.78;5116998;27;20046;-75
2023/01/14 06:38:12;;;;;;;36.08;7.50;;;;;;;6.69;100.00;100695.06;5135498;27;20071;-75
2023/01/14 06:40:39;;;;;;;37.65;9.32;;;;;;;6.73;100.00;100698.34;5111921;27;20015;-75
2023/01/14 06:43:06;;;;;;;36.28;7.13;;;;;;;6.58;100.00;100689.78;5107811;27;20044;-75
2023/01/14 06:45:31;;;;;;;34.05;6.18;;;;;;;6.68;100.00;100679.91;5113819;27;20039;-75
2023/01/14 06:47:57;;;;;;;40.45;8.15;;;;;;;6.67;100.00;100672.81;5134530;27;20030;-75
2023/01/14 06:50:22;;;;;;;39.00;6.28;;;;;;;6.57;100.00;100680.00;5126537;27;20068;-75
2023/01/14 06:52:48;;;;;;;37.72;6.97;;;;;;;6.61;100.00;100670.69;5110460;27;20380;-75
2023/01/14 06:55:15;;;;;;;42.20;6.28;;;;;;;6.70;100.00;100688.69;5112976;27;20109;-75
2023/01/14 06:57:42;;;;;;;34.10;4.88;;;;;;;6.63;100.00;100690.22;5105433;27;20031;-75
2023/01/14 07:00:08;;;;;;;34.30;5.88;;;;;;;6.62;100.00;100696.59;5122867;27;20073;-75
2023/01/14 07:02:34;;;;;;;43.63;5.57;;;;;;;6.66;100.00;100684.56;5122625;27;20015;-75
2023/01/14 07:04:59;;;;;;;24.27;4.60;;;;;;;6.63;100.00;100689.38;5116257;27;20106;-75
2023/01/14 07:07:24;;;;;;;33.50;6.38;;;;;;;6.72;100.00;100689.41;5120394;27;20351;-75
2023/01/14 07:09:50;;;;;;;32.22;5.80;;;;;;;6.69;100.00;100686.97;5121575;27;20023;-75
2023/01/14 07:12:15;;;;;;;40.63;6.28;;;;;;;6.68;100.00;100689.81;5115278;27;20031;-76
2023/01/14 07:14:40;;;;;;;32.05;4.82;;;;;;;6.76;100.00;100690.81;5124643;27;20027;-75
2023/01/14 07:17:05;;;;;;;24.25;4.07;;;;;;;6.83;100.00;100679.50;5104953;27;20030;-76
2023/01/14 07:19:31;;;;;;;31.63;6.07;;;;;;;6.77;100.00;100681.75;5125049;27;20056;-76
2023/01/14 07:21:56;;;;;;;42.28;6.75;;;;;;;6.67;100.00;100674.66;5113354;27;20039;-75
2023/01/14 07:24:22;;;;;;;38.90;5.55;;;;;;;6.65;100.00;100674.81;5112644;27;20058;-75
2023/01/14 07:26:47;;;;;;;34.35;5.65;;;;;;;6.58;100.00;100687.06;5134664;27;20046;-75
2023/01/14 07:29:14;;;;;;;32.05;6.20;;;;;;;6.60;100.00;100660.91;5117218;27;20075;-75
2023/01/14 07:31:40;;;;;;;38.90;6.38;;;;;;;6.51;100.00;100669.78;5113799;27;20023;-75
2023/01/14 07:34:06;;;;;;;31.85;5.72;;;;;;;6.45;100.00;100681.09;5118084;27;20019;-75
2023/01/14 07:36:31;;;;;;;41.22;6.32;;;;;;;6.44;100.00;100663.25;5111674;27;20042;-75
2023/01/14 07:38:57;;;;;;;28.60;5.50;;;;;;;6.47;100.00;100668.38;5115087;27;20023;-75
2023/01/14 07:41:22;;;;;;;34.25;5.55;;;;;;;6.63;100.00;100663.31;5116462;27;20660;-74
2023/01/14 07:43:49;;;;;;;34.63;5.75;;;;;;;6.56;100.00;100646.03;5116300;27;20027;-74
2023/01/14 07:46:15;;;;;;;36.58;8.05;;;;;;;6.40;100.00;100640.34;5119298;27;20054;-75
2023/01/14 07:48:42;;;;;;;43.72;7.15;;;;;;;6.33;100.00;100644.56;5111010;27;20054;-74
2023/01/14 07:51:08;;;;;;;43.92;7.53;;;;;;;6.36;100.00;100639.75;5118987;27;20029;-74
2023/01/14 07:53:34;;;;;;;36.67;7.13;;;;;;;6.36;100.00;100650.50;5130328;27;20019;-75
2023/01/14 07:56:01;;;;;;;36.20;7.28;;;;;;;6.25;100.00;100643.38;5120348;27;20075;-75
2023/01/14 07:58:27;;;;;;;32.88;6.38;;;;;;;6.19;100.00;100653.81;5104175;27;20023;-75
2023/01/14 08:00:55;;;;;;;44.95;7.40;;;;;;;6.33;100.00;100655.31;5111973;27;20020;-75
2023/01/14 08:03:21;;;;;;;36.50;6.75;;;;;;;6.48;100.00;100660.16;5101756;27;20024;-76
2023/01/14 08:05:47;;;;;;;35.88;6.78;;;;;;;6.50;100.00;100668.09;5104164;28;20088;-75
2023/01/14 08:08:12;;;;;;;39.15;6.55;;;;;;;6.51;100.00;100653.66;5107590;27;20088;-75
2023/01/14 08:10:38;;;;;;;36.95;7.15;;;;;;;6.24;100.00;100663.19;5114718;27;20034;-74
2023/01/14 08:13:20;;;;;;;69.28;7.78;;;;;;;6.37;100.00;100645.97;5106419;27;20074;-74
2023/01/14 08:15:54;;;;;;;53.13;7.22;;;;;;;6.45;100.00;100646.97;5097444;27;20129;-74
2023/01/14 08:18:19;;;;;;;35.50;7.18;;;;;;;6.30;100.00;100644.81;5108053;27;20042;-76
2023/01/14 08:20:45;;;;;;;44.35;6.70;;;;;;;6.37;100.00;100641.44;5137244;27;20102;-76
2023/01/14 08:23:10;;;;;;;39.45;7.05;;;;;;;6.36;100.00;100622.75;5109349;27;20023;-76
2023/01/14 08:25:35;;;;;;;43.42;7.10;;;;;;;6.22;100.00;100627.53;5104882;28;20038;-76
2023/01/14 08:28:01;;;;;;;45.22;6.47;;;;;;;6.23;100.00;100634.59;5106680;27;20053;-76
2023/01/14 08:30:28;;;;;;;35.83;6.75;;;;;;;6.16;100.00;100633.44;5106215;27;20019;-76
2023/01/14 08:32:53;;;;;;;50.78;7.60;;;;;;;6.17;100.00;100624.41;5104747;28;20026;-76
2023/01/14 08:35:19;;;;;;;48.10;8.68;;;;;;;6.01;100.00;100624.06;5107810;27;20072;-76
2023/01/14 08:37:44;;;;;;;48.70;8.13;;;;;;;6.07;100.00;100628.91;5105790;28;20027;-76
2023/01/14 08:40:10;;;;;;;43.72;7.13;;;;;;;6.07;100.00;100618.16;5106751;27;20098;-76
2023/01/14 08:42:35;;;;;;;39.67;7.90;;;;;;;6.01;100.00;100618.69;5105712;28;20042;-77
2023/01/14 08:45:00;;;;;;;52.03;8.20;;;;;;;6.06;100.00;100616.44;5103860;28;20027;-76
2023/01/14 08:47:28;;;;;;;46.03;6.72;;;;;;;6.08;100.00;100609.09;5106749;27;20027;-76
2023/01/14 08:49:53;;;;;;;39.08;7.85;;;;;;;6.07;100.00;100602.03;5105551;28;20106;-76
2023/01/14 08:52:19;;;;;;;52.10;9.68;;;;;;;6.05;100.00;100592.38;5109641;27;20117;-74
2023/01/14 08:54:53;;;;;;;35.88;8.70;;;;;;;5.98;100.00;100592.06;5135686;27;20040;-74
2023/01/14 08:57:18;;;;;;;47.03;7.72;;;;;;;5.97;100.00;100598.44;5108779;27;20055;-74
2023/01/14 08:59:45;;;;;;;46.47;7.57;;;;;;;5.95;100.00;100595.03;5106408;27;20063;-72
2023/01/14 09:02:14;;;;;;;51.80;8.48;;;;;;;6.05;100.00;100587.00;5112504;27;20019;-71
2023/01/14 09:04:39;;;;;;;46.03;8.43;;;;;;;5.92;100.00;100571.13;5143568;27;20026;-74
2023/01/14 09:18:02;;;;;;;46.30;8.73;;;;;;;6.02;100.00;100577.41;5130165;27;20031;-71
2023/01/14 09:20:38;;;;;;;55.33;8.40;;;;;;;6.19;100.00;100568.69;5113241;27;20016;-71
2023/01/14 09:23:07;;;;;;;47.85;7.95;;;;;;;6.04;100.00;100559.28;5122355;27;20031;-72
2023/01/14 09:25:32;;;;;;;56.15;7.75;;;;;;;6.00;100.00;100563.25;5118570;27;20037;-72
2023/01/14 09:27:57;;;;;;;44.42;8.20;;;;;;;6.00;100.00;100552.50;5112192;27;20028;-72
2023/01/14 09:30:23;;;;;;;50.35;9.10;;;;;;;6.07;100.00;100542.91;5110087;27;20053;-72
2023/01/14 09:32:49;;;;;;;52.92;8.80;;;;;;;6.11;100.00;100544.31;5112528;27;20022;-71
2023/01/14 09:35:16;;;;;;;50.13;7.72;;;;;;;6.08;100.00;100539.22;5099756;27;20030;-71
2023/01/14 09:37:42;;;;;;;60.13;10.32;;;;;;;5.97;100.00;100531.25;5093944;28;20023;-74
2023/01/14 09:40:08;;;;;;;52.55;9.38;;;;;;;6.07;100.00;100532.16;5111251;27;20027;-74
2023/01/14 09:42:45;;;;;;;45.08;7.82;;;;;;;6.05;100.00;100523.34;5109512;27;20023;-74
2023/01/14 09:45:35;;;;;;;51.05;10.25;;;;;;;6.10;100.00;100521.09;5131659;27;20062;-74
2023/01/14 09:48:13;;;;;;;55.83;9.75;;;;;;;6.18;100.00;100529.31;5120634;27;20023;-74
2023/01/14 09:50:39;;;;;;;48.75;9.25;;;;;;;6.10;100.00;100526.50;5116323;27;20052;-74
2023/01/14 09:53:23;;;;;;;50.83;7.72;;;;;;;6.15;100.00;100526.94;5117414;27;20022;-74
2023/01/14 09:55:55;;;;;;;51.10;8.82;;;;;;;6.11;100.00;100517.44;5112842;27;20094;-74
2023/01/14 09:58:33;;;;;;;56.22;8.40;;;;;;;6.16;100.00;100509.81;5120740;27;20126;-72
2023/01/14 10:01:22;;;;;;;52.90;9.02;;;;;;;6.21;100.00;100502.19;5122980;27;20156;-72
2023/01/14 10:04:18;;;;;;;60.40;10.60;;;;;;;6.28;100.00;100517.75;5107160;27;20051;-72
2023/01/14 10:06:47;;;;;;;50.55;8.82;;;;;;;6.33;100.00;100499.38;5103231;28;20081;-72
2023/01/14 10:09:26;;;;;;;50.72;9.98;;;;;;;6.32;100.00;100492.28;5115550;27;20046;-72
2023/01/14 10:11:57;;;;;;;45.88;9.45;;;;;;;6.27;100.00;100484.66;5071184;28;20391;-72
2023/01/14 10:14:55;;;;;;;61.78;10.48;;;;;;;6.33;100.00;100477.88;5099095;28;20020;-72
2023/01/14 10:17:28;;;;;;;61.63;10.48;;;;;;;6.32;100.00;100476.16;5134324;27;20027;-72
2023/01/14 10:19:53;;;;;;;68.38;11.68;;;;;;;6.32;100.00;100468.06;5109548;27;20007;-72
2023/01/14 10:22:39;;;;;;;49.80;9.23;;;;;;;6.43;100.00;100465.25;5120252;27;20114;-72
2023/01/14 10:25:17;;;;;;;50.40;9.05;;;;;;;6.51;100.00;100455.47;5112879;27;20372;-71
2023/01/14 10:27:46;;;;;;;55.60;9.77;;;;;;;6.62;100.00;100446.41;5104561;27;20038;-71
2023/01/14 10:30:21;;;;;;;60.00;9.38;;;;;;;6.42;100.00;100434.00;5136057;27;20420;-72
2023/01/14 10:32:49;;;;;;;59.17;11.02;;;;;;;6.42;100.00;100424.06;5114559;27;20015;-72
2023/01/14 10:35:22;;;;;;;58.10;9.02;;;;;;;6.47;100.00;100415.59;5119898;27;20050;-71
2023/01/14 10:37:48;;;;;;;63.60;11.50;;;;;;;6.51;100.00;100395.47;5107130;27;20019;-69
2023/01/14 10:40:24;;;;;;;54.28;10.13;;;;;;;6.57;100.00;100389.50;5107499;27;20377;-73
2023/01/14 10:42:52;;;;;;;62.42;9.98;;;;;;;6.65;100.00;100392.34;5122462;27;20011;-72
2023/01/14 10:45:17;;;;;;;63.33;9.73;;;;;;;6.56;100.00;100382.44;5109285;27;20027;-71
2023/01/14 10:47:44;;;;;;;41.90;8.93;;;;;;;6.63;100.00;100372.78;5126477;27;20026;-72
2023/01/14 10:50:25;;;;;;;53.85;9.20;;;;;;;6.66;100.00;100367.16;5105177;27;20053;-72
2023/01/14 10:52:53;;;;;;;33.07;7.87;;;;;;;6.58;100.00;100356.25;5100815;27;20020;-72
2023/01/14 10:55:25;;;;;;;64.13;11.52;;;;;;;6.69;100.00;100345.31;5138258;27;20048;-72
2023/01/14 10:57:59;;;;;;;;;;;;;;;6.74;100.00;100321.53;5105711;27;20020;-72
2023/01/14 11:00:44;;;;;;;49.90;8.10;;;;;;;6.75;100.00;100301.69;5101488;27;19908;-77
2023/01/14 11:03:20;;;;;;;46.17;7.28;;;;;;;6.61;100.00;100299.47;5104510;27;20060;-72
2023/01/14 11:05:54;;;;;;;48.35;8.35;;;;;;;6.59;100.00;100279.13;5114067;27;20090;-72
2023/01/14 11:08:22;;;;;;;49.63;8.88;;;;;;;6.61;100.00;100298.63;5106258;27;20046;-74
2023/01/14 11:10:56;;;;;;;36.83;6.75;;;;;;;6.67;100.00;100281.91;5112467;27;20015;-73
2023/01/14 11:13:31;;;;;;;48.97;8.98;;;;;;;6.60;100.00;100287.03;5113108;27;20075;-73
2023/01/14 11:15:57;;;;;;;54.00;8.85;;;;;;;6.66;100.00;100270.31;5114500;27;20428;-71
2023/01/14 11:18:27;;;;;;;66.40;9.23;;;;;;;6.68;100.00;100260.22;5108434;27;20031;-71
2023/01/14 11:21:10;;;;;;;45.50;6.43;;;;;;;6.80;100.00;100250.97;5107863;27;20019;-71
2023/01/14 11:23:42;;;;;;;49.22;8.15;;;;;;;6.67;100.00;100239.72;5104207;27;20125;-71
2023/01/14 11:26:21;;;;;;;40.83;7.55;;;;;;;6.67;100.00;100234.34;5112254;27;20424;-71
2023/01/14 11:28:49;;;;;;;44.38;6.72;;;;;;;6.72;100.00;100221.28;5107867;27;20142;-74
2023/01/14 11:31:25;;;;;;;56.72;7.05;;;;;;;6.64;100.00;100212.25;5113449;27;20058;-71
2023/01/14 11:33:53;;;;;;;46.28;5.95;;;;;;;6.68;100.00;100208.28;5100333;27;20068;-71
2023/01/14 11:36:27;;;;;;;50.72;7.07;;;;;;;6.71;100.00;100206.13;5095335;27;20091;-70
2023/01/14 11:38:56;;;;;;;52.17;7.90;;;;;;;6.69;100.00;100205.44;5108514;27;20049;-71
2023/01/14 11:41:38;;;;;;;38.38;6.85;;;;;;;6.72;100.00;100194.41;5122115;27;20046;-71
2023/01/14 11:44:15;;;;;;;42.38;6.43;;;;;;;6.72;100.00;100186.31;5120266;27;20038;-72
2023/01/14 11:46:45;;;;;;;49.75;7.75;;;;;;;6.67;100.00;100180.53;5124793;27;20035;-72
2023/01/14 11:49:21;;;;;;;38.17;6.85;;;;;;;6.67;100.00;100175.16;5102501;27;20030;-70
2023/01/14 11:51:58;;;;;;;39.15;6.95;;;;;;;6.75;100.00;100169.88;5096778;27;20027;-71
2023/01/14 11:54:31;;;;;;;41.78;6.93;;;;;;;6.70;100.00;100142.56;5112030;27;20336;-70